createdAt,value
2022-08-25T00:01:50.746Z,36.63
2022-08-25T00:04:21.273Z,38.53
2022-08-25T00:06:53.080Z,38.03
2022-08-25T00:09:24.983Z,39.40
2022-08-25T00:11:54.084Z,35.03
2022-08-25T00:14:28.579Z,38.53
2022-08-25T00:16:57.626Z,37.30
2022-08-25T00:19:28.773Z,38.80
2022-08-25T00:21:58.057Z,37.60
2022-08-25T00:24:27.128Z,38.80
2022-08-25T00:26:58.104Z,39.03
2022-08-25T00:29:29.144Z,39.77
2022-08-25T00:31:58.246Z,38.97
2022-08-25T00:34:29.906Z,39.87
2022-08-25T00:36:58.790Z,39.97
2022-08-25T00:39:28.270Z,38.10
2022-08-25T00:41:59.170Z,38.93
2022-08-25T00:44:32.682Z,38.50
2022-08-25T00:47:03.919Z,42.33
2022-08-25T00:49:37.291Z,39.50
2022-08-25T00:52:09.063Z,40.83
2022-08-25T00:54:42.270Z,38.00
2022-08-25T00:57:13.587Z,38.30
2022-08-25T00:59:44.645Z,39.10
2022-08-25T01:02:14.770Z,38.43
2022-08-25T01:04:48.981Z,39.37
2022-08-25T01:07:20.681Z,42.80
2022-08-25T01:09:53.566Z,40.20
2022-08-25T01:12:23.277Z,39.00
2022-08-25T01:14:55.102Z,39.13
2022-08-25T01:17:28.045Z,39.73
2022-08-25T01:19:56.993Z,40.47
2022-08-25T01:22:27.399Z,38.90
2022-08-25T01:25:04.200Z,39.43
2022-08-25T01:27:32.834Z,36.77
2022-08-25T01:30:01.716Z,38.27
2022-08-25T01:32:30.425Z,38.00
2022-08-25T01:34:59.157Z,37.40
2022-08-25T01:37:29.275Z,38.10
2022-08-25T01:39:58.006Z,38.20
2022-08-25T01:42:39.965Z,39.57
2022-08-25T01:45:10.564Z,39.43
2022-08-25T01:47:39.795Z,40.57
2022-08-25T01:50:09.397Z,37.90
2022-08-25T01:52:48.922Z,38.83
2022-08-25T01:55:17.919Z,38.63
2022-08-25T01:57:46.608Z,36.50
2022-08-25T02:00:17.121Z,39.73
2022-08-25T02:02:45.836Z,35.87
2022-08-25T02:05:20.326Z,35.03
2022-08-25T02:07:53.911Z,38.20
2022-08-25T02:10:22.708Z,40.53
2022-08-25T02:12:53.092Z,38.47
2022-08-25T02:15:23.427Z,36.63
2022-08-25T02:17:52.125Z,39.43
2022-08-25T02:20:20.794Z,42.30
2022-08-25T02:22:53.004Z,45.03
2022-08-25T02:25:27.140Z,47.43
2022-08-25T02:27:55.865Z,45.67
2022-08-25T02:30:24.877Z,43.50
2022-08-25T02:32:53.589Z,41.17
2022-08-25T02:35:22.649Z,40.93
2022-08-25T02:37:52.663Z,39.53
2022-08-25T02:40:23.796Z,40.23
2022-08-25T02:42:54.051Z,41.40
2022-08-25T02:45:23.017Z,39.97
2022-08-25T02:47:51.984Z,44.50
2022-08-25T02:50:20.846Z,41.50
2022-08-25T02:52:50.970Z,43.10
2022-08-25T02:55:20.802Z,41.20
2022-08-25T02:57:49.569Z,38.97
2022-08-25T03:00:20.328Z,39.97
2022-08-25T03:02:49.041Z,40.93
2022-08-25T03:05:18.136Z,40.87
2022-08-25T03:07:46.874Z,40.10
2022-08-25T03:10:19.927Z,38.23
2022-08-25T03:12:48.962Z,37.70
2022-08-25T03:15:19.763Z,35.57
2022-08-25T03:17:50.601Z,36.30
2022-08-25T03:20:20.186Z,36.93
2022-08-25T03:22:49.252Z,38.53
2022-08-25T03:25:35.257Z,37.03
2022-08-25T03:28:05.203Z,38.30
2022-08-25T03:30:35.994Z,41.17
2022-08-25T03:33:04.870Z,41.97
2022-08-25T03:35:33.534Z,38.30
2022-08-25T03:38:02.394Z,39.20
2022-08-25T03:40:31.369Z,40.20
2022-08-25T03:43:00.372Z,38.60
2022-08-25T03:45:29.212Z,38.97
2022-08-25T03:47:59.692Z,40.07
2022-08-25T03:50:28.367Z,38.97
2022-08-25T03:52:58.346Z,38.93
2022-08-25T03:55:27.757Z,40.17
2022-08-25T03:57:57.733Z,38.97
2022-08-25T04:00:26.398Z,39.47
2022-08-25T04:02:55.027Z,38.87
2022-08-25T04:05:25.060Z,38.40
2022-08-25T04:07:56.114Z,36.17
2022-08-25T04:10:24.969Z,34.97
2022-08-25T04:12:53.664Z,37.00
2022-08-25T04:15:22.281Z,36.87
2022-08-25T04:17:51.967Z,37.83
2022-08-25T04:20:24.454Z,36.97
2022-08-25T04:22:53.118Z,37.57
2022-08-25T04:25:21.889Z,36.47
2022-08-25T04:27:51.015Z,34.90
2022-08-25T04:30:19.953Z,33.53
2022-08-25T04:32:49.443Z,35.77
2022-08-25T04:35:18.418Z,34.40
2022-08-25T04:37:49.082Z,36.70
2022-08-25T04:40:17.914Z,35.73
2022-08-25T04:42:48.223Z,33.60
2022-08-25T04:45:17.170Z,33.17
2022-08-25T04:47:46.270Z,32.43
2022-08-25T04:50:14.899Z,32.20
2022-08-25T04:52:43.604Z,33.20
2022-08-25T04:55:13.713Z,34.87
2022-08-25T04:57:42.370Z,33.17
2022-08-25T05:00:13.162Z,30.43
2022-08-25T05:02:41.841Z,30.43
2022-08-25T05:05:10.521Z,33.40
2022-08-25T05:07:39.435Z,31.07
2022-08-25T05:10:09.351Z,31.60
2022-08-25T05:12:39.573Z,29.60
2022-08-25T05:15:24.604Z,29.90
2022-08-25T05:17:55.973Z,29.13
2022-08-25T05:20:25.379Z,28.70
2022-08-25T05:22:54.311Z,27.17
2022-08-25T05:25:23.029Z,28.00
2022-08-25T05:27:53.138Z,27.07
2022-08-25T05:30:21.875Z,27.50
2022-08-25T05:32:50.533Z,29.47
2022-08-25T05:35:20.065Z,28.63
2022-08-25T05:37:49.067Z,28.40
2022-08-25T05:40:17.836Z,27.40
2022-08-25T05:42:46.424Z,27.13
2022-08-25T05:45:17.392Z,26.23
2022-08-25T05:47:49.464Z,26.43
2022-08-25T05:50:19.050Z,24.87
2022-08-25T05:52:47.900Z,27.10
2022-08-25T05:55:16.828Z,27.27
2022-08-25T05:57:45.577Z,26.90
2022-08-25T06:00:17.457Z,27.57
2022-08-25T06:02:46.591Z,26.47
2022-08-25T06:05:17.677Z,27.17
2022-08-25T06:07:47.018Z,29.27
2022-08-25T06:10:16.854Z,28.30
2022-08-25T06:12:46.718Z,28.40
2022-08-25T06:15:18.707Z,28.67
2022-08-25T06:17:48.293Z,27.77
2022-08-25T06:20:19.427Z,29.00
2022-08-25T06:22:51.195Z,29.20
2022-08-25T06:25:22.326Z,26.33
2022-08-25T06:27:51.382Z,26.03
2022-08-25T06:30:28.676Z,27.27
2022-08-25T06:32:57.726Z,24.80
2022-08-25T06:35:26.376Z,24.43
2022-08-25T06:37:55.019Z,23.20
2022-08-25T06:40:24.580Z,23.67
2022-08-25T06:42:53.519Z,22.00
2022-08-25T06:45:23.573Z,24.37
2022-08-25T06:47:53.114Z,23.80
2022-08-25T06:50:21.930Z,24.13
2022-08-25T06:52:52.101Z,24.27
2022-08-25T06:55:21.203Z,21.17
2022-08-25T06:57:49.903Z,22.10
2022-08-25T07:00:19.000Z,24.03
2022-08-25T07:02:49.016Z,25.00
2022-08-25T07:05:33.552Z,24.33
2022-08-25T07:08:02.673Z,24.47
2022-08-25T07:10:31.690Z,24.57
2022-08-25T07:13:00.310Z,21.67
2022-08-25T07:15:28.940Z,23.70
2022-08-25T07:17:59.541Z,24.53
2022-08-25T07:20:29.521Z,22.83
2022-08-25T07:22:59.224Z,22.00
2022-08-25T07:25:28.034Z,23.93
2022-08-25T07:27:59.052Z,23.57
2022-08-25T07:30:28.447Z,23.47
2022-08-25T07:32:58.444Z,23.07
2022-08-25T07:35:27.554Z,22.63
2022-08-25T07:38:10.148Z,23.50
2022-08-25T07:40:42.737Z,23.63
2022-08-25T07:43:11.864Z,25.27
2022-08-25T07:45:49.167Z,21.70
2022-08-25T07:48:20.804Z,21.40
2022-08-25T07:50:49.989Z,22.67
2022-08-25T07:53:19.334Z,21.27
2022-08-25T07:55:47.920Z,23.87
2022-08-25T07:58:16.788Z,22.00
2022-08-25T08:00:48.800Z,21.23
2022-08-25T08:03:42.198Z,19.70
2022-08-25T08:06:11.779Z,22.50
2022-08-25T08:08:43.527Z,23.07
2022-08-25T08:11:18.210Z,26.07
2022-08-25T08:13:48.215Z,22.80
2022-08-25T08:16:20.933Z,20.03
2022-08-25T08:18:51.665Z,21.23
2022-08-25T08:21:22.758Z,20.67
2022-08-25T08:23:58.076Z,17.52
2022-08-25T08:26:48.221Z,18.40
2022-08-25T08:29:17.329Z,13.48
2022-08-25T08:31:48.752Z,13.98
2022-08-25T08:34:19.486Z,11.20
2022-08-25T08:36:53.813Z,12.02
2022-08-25T08:39:23.300Z,11.38
2022-08-25T08:42:20.927Z,10.38
2022-08-25T08:45:17.543Z,12.25
2022-08-25T08:47:56.485Z,10.77
2022-08-25T08:50:33.906Z,10.95
2022-08-25T08:53:09.456Z,11.15
2022-08-25T08:55:41.363Z,13.32
2022-08-25T08:58:17.999Z,11.10
2022-08-25T09:00:52.463Z,11.07
2022-08-25T09:03:35.430Z,11.38
2022-08-25T09:06:09.268Z,9.63
2022-08-25T09:08:44.568Z,10.35
2022-08-25T09:11:20.463Z,10.75
2022-08-25T09:14:20.200Z,10.73
2022-08-25T09:16:59.049Z,10.95
2022-08-25T09:19:48.633Z,11.68
2022-08-25T09:22:36.383Z,11.18
2022-08-25T09:25:14.533Z,9.23
2022-08-25T09:27:55.136Z,8.32
2022-08-25T09:30:25.187Z,8.15
2022-08-25T09:33:05.306Z,8.75
2022-08-25T09:35:37.838Z,9.45
2022-08-25T09:38:10.303Z,11.63
2022-08-25T09:40:42.528Z,8.98
2022-08-25T09:43:23.119Z,8.82
2022-08-25T09:46:01.312Z,10.30
2022-08-25T09:48:40.592Z,8.15
2022-08-25T09:51:22.067Z,8.82
2022-08-25T09:53:57.130Z,10.63
2022-08-25T09:56:28.167Z,7.35
2022-08-25T09:59:03.018Z,8.80
2022-08-25T10:01:34.806Z,13.90
2022-08-25T10:04:05.691Z,7.32
2022-08-25T10:06:45.842Z,8.95
2022-08-25T10:09:29.671Z,10.02
2022-08-25T10:12:01.332Z,12.98
2022-08-25T10:14:36.488Z,12.80
2022-08-25T10:17:27.384Z,8.38
2022-08-25T10:20:16.444Z,10.18
2022-08-25T10:22:48.272Z,7.57
2022-08-25T10:25:31.382Z,10.07
2022-08-25T10:28:12.702Z,9.13
2022-08-25T10:30:55.916Z,8.35
2022-08-25T10:33:34.184Z,7.10
2022-08-25T10:36:10.799Z,8.95
2022-08-25T10:38:43.285Z,12.45
2022-08-25T10:41:44.092Z,7.97
2022-08-25T10:44:40.524Z,11.38
2022-08-25T10:47:29.906Z,11.07
2022-08-25T10:50:05.645Z,8.85
2022-08-25T10:52:40.672Z,14.70
2022-08-25T10:55:18.690Z,9.48
2022-08-25T10:57:57.852Z,9.30
2022-08-25T11:00:35.822Z,10.07
2022-08-25T11:03:19.286Z,12.05
2022-08-25T11:05:52.636Z,10.60
2022-08-25T11:08:33.832Z,9.80
2022-08-25T11:11:14.281Z,8.18
2022-08-25T11:13:54.653Z,12.50
2022-08-25T11:16:33.379Z,10.82
2022-08-25T11:19:08.692Z,11.57
2022-08-25T11:21:46.050Z,9.73
2022-08-25T11:24:31.292Z,8.25
2022-08-25T11:27:01.216Z,11.05
2022-08-25T11:29:37.051Z,10.18
2022-08-25T11:32:08.916Z,13.18
2022-08-25T11:34:43.623Z,9.43
2022-08-25T11:37:21.813Z,7.03
2022-08-25T11:40:22.697Z,15.30
2022-08-25T11:43:24.607Z,15.98
2022-08-25T11:46:21.173Z,12.73
2022-08-25T11:49:04.834Z,13.88
2022-08-25T11:51:42.220Z,12.68
2022-08-25T11:54:21.285Z,14.65
2022-08-25T11:56:58.153Z,15.18
2022-08-25T12:00:09.547Z,10.65
2022-08-25T12:02:42.777Z,10.98
2022-08-25T12:05:33.627Z,13.10
2022-08-25T12:08:31.887Z,11.45
2022-08-25T12:11:07.163Z,17.25
2022-08-25T12:13:45.960Z,9.65
2022-08-25T12:16:47.702Z,7.07
2022-08-25T12:19:49.909Z,10.98
2022-08-25T12:22:44.495Z,9.60
2022-08-25T12:25:40.275Z,15.05
2022-08-25T12:28:35.393Z,11.35
2022-08-25T12:31:11.231Z,10.30
2022-08-25T12:33:49.590Z,12.88
2022-08-25T12:36:36.043Z,13.05
2022-08-25T12:39:24.616Z,10.52
2022-08-25T12:45:07.171Z,12.77
2022-08-25T12:47:37.767Z,17.35
2022-08-25T12:50:33.459Z,18.55
2022-08-25T12:53:13.651Z,14.00
2022-08-25T12:55:48.777Z,18.35
2022-08-25T12:58:18.123Z,14.48
2022-08-25T13:01:15.670Z,14.88
2022-08-25T13:04:48.337Z,19.27
2022-08-25T13:07:31.498Z,19.90
2022-08-25T13:10:19.949Z,15.82
2022-08-25T13:12:56.857Z,15.32
2022-08-25T13:15:38.538Z,12.05
2022-08-25T13:18:21.055Z,13.45
2022-08-25T13:20:55.169Z,14.65
2022-08-25T13:23:29.146Z,17.08
2022-08-25T13:26:02.532Z,13.90
2022-08-25T13:28:40.728Z,17.90
2022-08-25T13:31:19.446Z,15.18
2022-08-25T13:33:58.232Z,15.45
2022-08-25T13:36:52.036Z,13.85
2022-08-25T13:39:52.849Z,13.55
2022-08-25T13:42:23.959Z,20.77
2022-08-25T13:44:59.531Z,16.48
2022-08-25T13:47:43.647Z,17.58
2022-08-25T13:50:34.243Z,14.20
2022-08-25T13:53:11.338Z,17.15
2022-08-25T13:55:50.989Z,22.05
2022-08-25T13:58:34.325Z,14.73
2022-08-25T14:01:19.927Z,9.05
2022-08-25T14:04:32.798Z,11.23
2022-08-25T14:07:34.024Z,19.42
2022-08-25T14:10:07.190Z,17.73
2022-08-25T14:12:39.951Z,13.82
2022-08-25T14:15:13.223Z,17.02
2022-08-25T14:17:49.429Z,13.45
2022-08-25T14:20:28.385Z,19.85
2022-08-25T14:23:09.849Z,16.88
2022-08-25T14:25:40.760Z,14.63
2022-08-25T14:28:16.570Z,17.00
2022-08-25T14:30:51.671Z,21.40
2022-08-25T14:33:27.994Z,11.15
2022-08-25T14:36:03.020Z,12.57
2022-08-25T14:38:33.725Z,19.35
2022-08-25T14:43:37.284Z,17.67
2022-08-25T14:46:15.409Z,20.25
2022-08-25T14:48:49.459Z,21.63
2022-08-25T14:51:20.720Z,15.65
2022-08-25T14:53:52.678Z,21.58
2022-08-25T14:56:25.914Z,26.90
2022-08-25T14:59:00.626Z,19.13
2022-08-25T15:01:36.310Z,12.57
2022-08-25T15:04:15.731Z,16.90
2022-08-25T15:06:47.918Z,15.50
2022-08-25T15:09:19.210Z,15.85
2022-08-25T15:11:59.422Z,22.52
2022-08-25T15:14:35.541Z,12.85
2022-08-25T15:17:08.712Z,21.63
2022-08-25T15:19:44.662Z,27.35
2022-08-25T15:22:29.750Z,24.23
2022-08-25T15:25:26.788Z,12.90
2022-08-25T15:28:03.307Z,16.92
2022-08-25T15:30:53.604Z,16.38
2022-08-25T15:33:34.392Z,22.42
2022-08-25T15:36:16.965Z,16.20
2022-08-25T15:39:02.729Z,17.20
2022-08-25T15:41:45.056Z,21.52
2022-08-25T15:44:17.030Z,19.85
2022-08-25T15:46:57.406Z,16.17
2022-08-25T15:49:33.871Z,24.23
2022-08-25T15:52:46.665Z,17.60
2022-08-25T15:55:29.124Z,14.23
2022-08-25T15:57:59.264Z,21.60
2022-08-25T16:00:31.806Z,16.20
2022-08-25T16:07:35.103Z,16.23
2022-08-25T16:11:32.053Z,21.47
2022-08-25T16:17:28.448Z,14.00
2022-08-25T16:20:25.043Z,18.43
2022-08-25T16:23:11.655Z,14.93
2022-08-25T16:29:09.580Z,20.63
2022-08-25T16:31:41.625Z,18.90
2022-08-25T16:34:15.004Z,15.17
2022-08-25T16:40:10.599Z,16.20
2022-08-25T16:42:41.867Z,23.17
2022-08-25T16:45:16.363Z,16.53
2022-08-25T16:48:24.585Z,22.87
2022-08-25T16:55:02.502Z,22.40
2022-08-25T16:58:18.523Z,17.73
2022-08-25T17:01:20.823Z,32.40
2022-08-25T17:03:54.642Z,33.20
2022-08-25T17:06:28.404Z,34.53
2022-08-25T17:08:58.494Z,23.13
2022-08-25T17:11:30.662Z,24.10
2022-08-25T17:14:10.960Z,27.43
2022-08-25T17:16:40.225Z,51.80
2022-08-25T17:19:15.865Z,60.73
2022-08-25T17:22:14.839Z,52.57
2022-08-25T17:25:15.054Z,51.13
2022-08-25T17:28:03.189Z,26.37
2022-08-25T17:31:31.975Z,34.40
2022-08-25T17:34:33.830Z,28.90
2022-08-25T17:37:29.904Z,35.37
2022-08-25T17:40:26.546Z,25.30
2022-08-25T17:43:04.366Z,24.47
2022-08-25T17:45:46.721Z,16.00
2022-08-25T17:48:27.503Z,21.40
2022-08-25T17:50:57.444Z,15.97
2022-08-25T17:53:55.083Z,18.20
2022-08-25T17:56:36.562Z,17.60
2022-08-25T17:59:33.759Z,19.67
2022-08-25T18:02:12.521Z,20.67
2022-08-25T18:04:57.955Z,16.17
2022-08-25T18:08:52.240Z,18.83
2022-08-25T18:11:30.096Z,17.57
2022-08-25T18:14:10.838Z,17.07
2022-08-25T18:16:42.217Z,24.00
2022-08-25T18:19:14.334Z,18.80
2022-08-25T18:22:21.167Z,20.20
2022-08-25T18:28:40.129Z,20.23
2022-08-25T18:31:14.154Z,16.03
2022-08-25T18:33:45.539Z,21.87
2022-08-25T18:36:17.407Z,22.33
2022-08-25T18:39:05.536Z,16.27
2022-08-25T18:41:38.245Z,13.70
2022-08-25T18:44:07.627Z,18.23
2022-08-25T18:46:37.114Z,20.03
2022-08-25T18:49:06.243Z,15.13
2022-08-25T18:51:36.940Z,20.10
2022-08-25T18:54:06.632Z,16.97
2022-08-25T18:56:36.990Z,16.87
2022-08-25T18:59:05.909Z,18.70
2022-08-25T19:01:35.828Z,17.73
2022-08-25T19:04:05.584Z,22.60
2022-08-25T19:06:37.892Z,21.33
2022-08-25T19:09:07.545Z,19.47
2022-08-25T19:11:36.451Z,14.10
2022-08-25T19:14:12.222Z,19.07
2022-08-25T19:16:43.891Z,12.83
2022-08-25T19:19:14.001Z,18.17
2022-08-25T19:21:44.738Z,22.13
2022-08-25T19:24:17.732Z,13.40
2022-08-25T19:26:49.581Z,17.90
2022-08-25T19:29:21.477Z,16.00
2022-08-25T19:31:51.236Z,14.10
2022-08-25T19:34:28.235Z,17.00
2022-08-25T19:37:03.085Z,17.43
2022-08-25T19:39:35.527Z,18.57
2022-08-25T19:42:37.224Z,16.27
2022-08-25T19:44:59.446Z,20.53
2022-08-25T19:47:30.059Z,18.43
2022-08-25T19:50:01.206Z,17.50
2022-08-25T19:52:31.948Z,17.30
2022-08-25T19:55:04.593Z,15.00
2022-08-25T19:57:42.790Z,18.40
2022-08-25T20:00:16.142Z,14.20
2022-08-25T20:02:46.535Z,14.40
2022-08-25T20:05:23.845Z,18.80
2022-08-25T20:07:56.775Z,18.73
2022-08-25T20:10:28.448Z,14.27
2022-08-25T20:12:57.634Z,15.80
2022-08-25T20:15:27.657Z,19.90
2022-08-25T20:17:56.918Z,14.10
2022-08-25T20:20:32.416Z,14.30
2022-08-25T20:23:19.305Z,16.30
2022-08-25T20:25:48.700Z,16.37
2022-08-25T20:28:19.305Z,14.80
2022-08-25T20:30:48.506Z,14.87
2022-08-25T20:33:22.916Z,14.53
2022-08-25T20:35:53.011Z,17.17
2022-08-25T20:38:23.975Z,20.63
2022-08-25T20:40:53.024Z,16.77
2022-08-25T20:43:22.080Z,13.67
2022-08-25T20:45:51.424Z,17.90
2022-08-25T20:48:20.343Z,11.30
2022-08-25T20:50:54.359Z,17.30
2022-08-25T20:53:28.284Z,15.03
2022-08-25T20:55:57.880Z,13.30
2022-08-25T20:58:26.748Z,19.73
2022-08-25T21:00:55.656Z,17.37
2022-08-25T21:03:24.821Z,19.73
2022-08-25T21:05:54.207Z,15.07
2022-08-25T21:08:23.651Z,20.13
2022-08-25T21:10:54.073Z,17.77
2022-08-25T21:13:22.937Z,16.53
2022-08-25T21:15:51.808Z,21.53
2022-08-25T21:18:20.963Z,16.60
2022-08-25T21:20:49.776Z,14.17
2022-08-25T21:23:18.839Z,14.30
2022-08-25T21:25:47.637Z,16.50
2022-08-25T21:28:18.230Z,18.07
2022-08-25T21:30:50.322Z,15.47
2022-08-25T21:33:19.124Z,17.67
2022-08-25T21:35:48.145Z,13.50
2022-08-25T21:38:18.089Z,19.00
2022-08-25T21:40:46.804Z,14.57
2022-08-25T21:43:18.933Z,16.90
2022-08-25T21:45:47.701Z,20.50
2022-08-25T21:48:16.990Z,17.73
2022-08-25T21:50:45.675Z,16.17
2022-08-25T21:53:14.502Z,19.93
2022-08-25T21:55:45.529Z,18.23
2022-08-25T21:58:14.241Z,17.50
2022-08-25T22:00:44.935Z,17.73
2022-08-25T22:03:13.727Z,16.90
2022-08-25T22:05:45.600Z,19.87
2022-08-25T22:08:14.533Z,16.93
2022-08-25T22:10:45.839Z,18.00
2022-08-25T22:13:14.607Z,16.90
2022-08-25T22:15:44.802Z,15.90
2022-08-25T22:18:13.552Z,18.83
2022-08-25T22:20:42.331Z,23.80
2022-08-25T22:23:11.138Z,16.87
2022-08-25T22:25:49.136Z,13.63
2022-08-25T22:28:18.441Z,15.20
2022-08-25T22:30:48.808Z,19.63
2022-08-25T22:33:17.817Z,19.20
2022-08-25T22:35:46.747Z,22.40
2022-08-25T22:38:15.873Z,19.37
2022-08-25T22:40:45.579Z,16.57
2022-08-25T22:43:15.339Z,19.33
2022-08-25T22:45:44.334Z,16.07
2022-08-25T22:48:14.599Z,17.30
2022-08-25T22:50:43.421Z,18.20
2022-08-25T22:53:13.337Z,19.23
2022-08-25T22:55:45.594Z,14.13
2022-08-25T22:58:15.350Z,22.00
2022-08-25T23:00:44.055Z,16.80
2022-08-25T23:03:14.331Z,18.83
2022-08-25T23:05:43.080Z,14.70
2022-08-25T23:08:11.729Z,15.70
2022-08-25T23:10:40.567Z,15.73
2022-08-25T23:13:09.300Z,19.33
2022-08-25T23:15:38.199Z,19.13
2022-08-25T23:18:08.060Z,23.10
2022-08-25T23:20:55.911Z,23.67
2022-08-25T23:23:25.839Z,17.20
2022-08-25T23:25:55.380Z,15.67
2022-08-25T23:28:24.055Z,15.57
2022-08-25T23:30:59.359Z,16.10
2022-08-25T23:33:28.749Z,14.87
2022-08-25T23:36:04.345Z,16.80
2022-08-25T23:38:33.305Z,19.63
2022-08-25T23:41:07.627Z,25.77
2022-08-25T23:43:38.473Z,14.80
2022-08-25T23:46:08.176Z,18.60
2022-08-25T23:48:36.937Z,14.90
2022-08-25T23:51:07.833Z,14.97
2022-08-25T23:53:36.940Z,19.27
2022-08-25T23:56:06.711Z,17.83
2022-08-25T23:58:36.137Z,14.90
